createdAt,value
2023-09-01T00:06:15.853Z,15.57
2023-09-01T00:16:20.114Z,15.44
2023-09-01T00:26:23.477Z,15.31
2023-09-01T00:36:28.133Z,15.19
2023-09-01T00:46:32.726Z,15.10
2023-09-01T00:56:37.149Z,14.99
2023-09-01T01:06:49.289Z,14.90
2023-09-01T01:16:54.919Z,14.81
2023-09-01T01:26:59.060Z,14.73
2023-09-01T01:37:09.502Z,14.64
2023-09-01T01:47:14.340Z,14.56
2023-09-01T01:57:17.723Z,14.47
2023-09-01T02:07:22.058Z,14.39
2023-09-01T02:17:24.918Z,14.31
2023-09-01T02:27:29.310Z,14.24
2023-09-01T02:37:32.206Z,14.22
2023-09-01T03:10:23.505Z,14.35
2023-09-01T03:20:28.037Z,14.40
2023-09-01T03:30:33.168Z,14.65
2023-09-01T03:40:37.808Z,15.07
2023-09-01T03:50:42.448Z,15.48
2023-09-01T04:00:45.998Z,15.95
2023-09-01T04:10:51.176Z,16.41
2023-09-01T04:20:56.462Z,16.91
2023-09-01T04:31:03.862Z,17.41
2023-09-01T04:41:07.821Z,17.93
2023-09-01T04:51:13.591Z,18.41
2023-09-01T05:01:17.139Z,18.91
2023-09-01T05:11:21.792Z,19.38
2023-09-01T05:21:25.033Z,19.84
2023-09-01T05:31:29.740Z,20.27
2023-09-01T05:41:34.304Z,20.67
2023-09-01T05:51:40.551Z,21.05
2023-09-01T06:01:43.638Z,21.38
2023-09-01T06:11:48.016Z,21.63
2023-09-01T06:21:51.835Z,21.91
2023-09-01T06:31:59.005Z,22.16
2023-09-01T06:42:05.179Z,22.41
2023-09-01T06:52:11.550Z,22.59
2023-09-01T07:02:17.534Z,22.76
2023-09-01T07:12:25.380Z,22.95
2023-09-01T07:22:29.185Z,23.07
2023-09-01T07:32:37.343Z,23.18
2023-09-01T07:42:41.337Z,23.23
2023-09-01T07:52:49.196Z,23.26
2023-09-01T08:02:54.504Z,23.28
2023-09-01T08:13:02.145Z,23.32
2023-09-01T08:23:05.993Z,23.32
2023-09-01T08:33:19.977Z,23.37
2023-09-01T08:43:24.738Z,23.44
2023-09-01T08:53:31.346Z,23.46
2023-09-01T09:03:35.815Z,23.53
2023-09-01T09:13:41.725Z,23.59
2023-09-01T09:23:49.539Z,23.65
2023-09-01T09:33:54.248Z,23.73
2023-09-01T09:43:58.299Z,23.75
2023-09-01T09:54:11.794Z,23.77
2023-09-01T10:04:18.344Z,23.72
2023-09-01T10:14:30.704Z,23.74
2023-09-01T10:24:33.576Z,23.83
2023-09-01T10:34:39.313Z,23.92
2023-09-01T10:45:13.724Z,24.03
2023-09-01T10:55:18.723Z,24.12
2023-09-01T11:05:38.456Z,24.19
2023-09-01T11:15:50.312Z,24.25
2023-09-01T11:25:57.090Z,24.30
2023-09-01T11:36:12.216Z,24.34
2023-09-01T11:46:20.476Z,24.36
2023-09-01T11:56:28.426Z,24.35
2023-09-01T12:06:32.691Z,24.36
2023-09-01T12:16:42.370Z,24.38
2023-09-01T12:26:47.706Z,24.41
2023-09-01T12:36:53.176Z,24.45
2023-09-01T12:46:56.428Z,24.46
2023-09-01T12:57:03.236Z,24.46
2023-09-01T13:07:05.980Z,24.50
2023-09-01T13:17:12.324Z,24.50
2023-09-01T13:27:16.347Z,24.50
2023-09-01T13:37:27.186Z,24.54
2023-09-01T13:47:30.744Z,24.56
2023-09-01T13:57:39.034Z,24.58
2023-09-01T14:07:42.951Z,24.57
2023-09-01T14:17:50.522Z,24.53
2023-09-01T14:27:55.677Z,24.47
2023-09-01T14:38:01.336Z,24.39
2023-09-01T14:48:05.413Z,24.34
2023-09-01T14:58:10.341Z,24.24
2023-09-01T15:08:17.084Z,24.15
2023-09-01T15:18:30.770Z,24.07
2023-09-01T15:28:36.897Z,23.97
2023-09-01T15:38:41.616Z,23.88
2023-09-01T15:48:48.216Z,23.78
2023-09-01T15:58:53.493Z,23.66
2023-09-01T16:08:56.710Z,23.53
2023-09-01T16:19:04.942Z,23.38
2023-09-01T16:29:11.713Z,23.22
2023-09-01T16:39:16.930Z,23.07
2023-09-01T16:49:22.580Z,22.93
2023-09-01T16:59:30.886Z,22.76
2023-09-01T17:09:37.350Z,22.60
2023-09-01T17:19:46.604Z,22.44
2023-09-01T17:29:50.526Z,22.28
2023-09-01T17:40:00.282Z,22.12
2023-09-01T17:50:09.551Z,21.97
2023-09-01T18:00:18.018Z,21.83
2023-09-01T18:10:21.652Z,21.69
2023-09-01T18:20:33.060Z,21.55
2023-09-01T18:30:43.973Z,21.41
2023-09-01T18:40:55.358Z,21.26
2023-09-01T18:51:19.157Z,21.13
2023-09-01T19:12:44.492Z,20.75
2023-09-01T19:35:11.314Z,20.44
2023-09-01T19:44:31.776Z,20.59
2023-09-01T19:45:35.570Z,20.28
2023-09-01T19:55:46.893Z,20.13
2023-09-01T20:05:54.346Z,19.98
2023-09-01T20:16:12.368Z,19.80
2023-09-01T20:26:22.799Z,19.65
2023-09-01T20:36:48.291Z,19.52
2023-09-01T20:46:51.257Z,19.38
2023-09-01T20:56:58.144Z,19.27
2023-09-01T21:07:04.778Z,19.09
2023-09-01T21:17:09.862Z,18.96
2023-09-01T21:27:13.282Z,18.79
2023-09-01T21:37:17.969Z,18.62
2023-09-01T21:47:21.843Z,18.41
2023-09-01T21:57:26.809Z,18.24
2023-09-01T22:07:29.680Z,18.05
2023-09-01T22:17:34.004Z,17.88
2023-09-01T22:27:37.251Z,17.70
2023-09-01T22:37:49.031Z,17.52
2023-09-01T22:47:55.767Z,17.31
2023-09-01T22:58:00.337Z,17.11
2023-09-01T23:08:11.456Z,16.94
2023-09-01T23:18:27.583Z,16.73
2023-09-01T23:28:30.711Z,16.60
2023-09-01T23:38:38.844Z,16.43
2023-09-01T23:48:43.021Z,16.30
2023-09-01T23:58:53.025Z,16.17
